sensor_id;sensor_type;location;lat;lon;timestamp;temperature;humidity
75155;HTU21D;63735;44.730;37.818;2023-04-25T00:01:45;11.30;84.59
75155;HTU21D;63735;44.730;37.818;2023-04-25T00:04:11;11.30;84.57
75155;HTU21D;63735;44.730;37.818;2023-04-25T00:06:37;11.27;84.49
75155;HTU21D;63735;44.730;37.818;2023-04-25T00:09:04;11.25;84.52
75155;HTU21D;63735;44.730;37.818;2023-04-25T00:11:33;11.25;84.52
75155;HTU21D;63735;44.730;37.818;2023-04-25T00:13:59;11.28;84.46
75155;HTU21D;63735;44.730;37.818;2023-04-25T00:16:28;11.29;84.42
75155;HTU21D;63735;44.730;37.818;2023-04-25T00:18:55;11.30;84.38
75155;HTU21D;63735;44.730;37.818;2023-04-25T00:21:21;11.32;84.32
75155;HTU21D;63735;44.730;37.818;2023-04-25T00:23:47;11.33;84.30
75155;HTU21D;63735;44.730;37.818;2023-04-25T00:26:13;11.31;84.29
75155;HTU21D;63735;44.730;37.818;2023-04-25T00:28:39;11.30;84.34
75155;HTU21D;63735;44.730;37.818;2023-04-25T00:31:06;11.30;84.32
75155;HTU21D;63735;44.730;37.818;2023-04-25T00:33:31;11.30;84.29
75155;HTU21D;63735;44.730;37.818;2023-04-25T00:35:58;11.29;84.32
75155;HTU21D;63735;44.730;37.818;2023-04-25T00:38:24;11.31;84.29
75155;HTU21D;63735;44.730;37.818;2023-04-25T00:40:50;11.31;84.24
75155;HTU21D;63735;44.730;37.818;2023-04-25T00:43:16;11.30;84.29
75155;HTU21D;63735;44.730;37.818;2023-04-25T00:45:43;11.30;84.26
75155;HTU21D;63735;44.730;37.818;2023-04-25T00:48:09;11.32;84.25
75155;HTU21D;63735;44.730;37.818;2023-04-25T00:50:36;11.33;84.19
75155;HTU21D;63735;44.730;37.818;2023-04-25T00:53:02;11.32;84.17
75155;HTU21D;63735;44.730;37.818;2023-04-25T00:55:29;11.30;84.16
75155;HTU21D;63735;44.730;37.818;2023-04-25T00:57:57;11.28;84.19
75155;HTU21D;63735;44.730;37.818;2023-04-25T01:00:23;11.27;84.21
75155;HTU21D;63735;44.730;37.818;2023-04-25T01:02:49;11.26;84.16
75155;HTU21D;63735;44.730;37.818;2023-04-25T01:05:16;11.25;84.16
75155;HTU21D;63735;44.730;37.818;2023-04-25T01:07:42;11.25;84.15
75155;HTU21D;63735;44.730;37.818;2023-04-25T01:10:08;11.25;84.17
75155;HTU21D;63735;44.730;37.818;2023-04-25T01:12:35;11.22;84.22
75155;HTU21D;63735;44.730;37.818;2023-04-25T01:15:01;11.19;84.20
75155;HTU21D;63735;44.730;37.818;2023-04-25T01:17:28;11.18;84.20
75155;HTU21D;63735;44.730;37.818;2023-04-25T01:19:54;11.17;84.19
75155;HTU21D;63735;44.730;37.818;2023-04-25T01:22:21;11.16;84.16
75155;HTU21D;63735;44.730;37.818;2023-04-25T01:24:47;11.13;84.19
75155;HTU21D;63735;44.730;37.818;2023-04-25T01:27:14;11.11;84.23
75155;HTU21D;63735;44.730;37.818;2023-04-25T01:29:40;11.08;84.21
75155;HTU21D;63735;44.730;37.818;2023-04-25T01:32:06;10.98;84.03
75155;HTU21D;63735;44.730;37.818;2023-04-25T01:34:32;10.92;83.97
75155;HTU21D;63735;44.730;37.818;2023-04-25T01:36:59;10.85;83.90
75155;HTU21D;63735;44.730;37.818;2023-04-25T01:39:28;10.81;83.86
75155;HTU21D;63735;44.730;37.818;2023-04-25T01:41:54;10.79;83.79
75155;HTU21D;63735;44.730;37.818;2023-04-25T01:44:20;10.82;83.71
75155;HTU21D;63735;44.730;37.818;2023-04-25T01:46:47;10.85;83.61
75155;HTU21D;63735;44.730;37.818;2023-04-25T01:49:13;10.86;83.55
75155;HTU21D;63735;44.730;37.818;2023-04-25T01:51:41;10.84;83.56
75155;HTU21D;63735;44.730;37.818;2023-04-25T01:54:08;10.77;83.75
75155;HTU21D;63735;44.730;37.818;2023-04-25T01:56:37;10.73;83.89
75155;HTU21D;63735;44.730;37.818;2023-04-25T01:59:05;10.68;84.00
75155;HTU21D;63735;44.730;37.818;2023-04-25T02:01:50;10.68;84.09
75155;HTU21D;63735;44.730;37.818;2023-04-25T02:04:22;10.64;84.16
75155;HTU21D;63735;44.730;37.818;2023-04-25T02:06:48;10.58;84.32
75155;HTU21D;63735;44.730;37.818;2023-04-25T02:09:15;10.54;84.53
75155;HTU21D;63735;44.730;37.818;2023-04-25T02:11:46;10.52;84.66
75155;HTU21D;63735;44.730;37.818;2023-04-25T02:14:41;10.53;84.70
75155;HTU21D;63735;44.730;37.818;2023-04-25T02:17:15;10.50;84.90
75155;HTU21D;63735;44.730;37.818;2023-04-25T02:19:41;10.51;85.01
75155;HTU21D;63735;44.730;37.818;2023-04-25T02:22:07;10.51;85.11
75155;HTU21D;63735;44.730;37.818;2023-04-25T02:24:33;10.54;85.13
75155;HTU21D;63735;44.730;37.818;2023-04-25T02:27:00;10.57;85.19
75155;HTU21D;63735;44.730;37.818;2023-04-25T02:29:27;10.59;85.24
75155;HTU21D;63735;44.730;37.818;2023-04-25T02:31:53;10.65;85.29
75155;HTU21D;63735;44.730;37.818;2023-04-25T02:34:19;10.71;85.36
75155;HTU21D;63735;44.730;37.818;2023-04-25T02:36:45;10.78;85.39
75155;HTU21D;63735;44.730;37.818;2023-04-25T02:39:11;10.84;85.42
75155;HTU21D;63735;44.730;37.818;2023-04-25T02:41:37;10.92;85.39
75155;HTU21D;63735;44.730;37.818;2023-04-25T02:44:03;10.96;85.41
75155;HTU21D;63735;44.730;37.818;2023-04-25T02:46:29;11.02;85.42
75155;HTU21D;63735;44.730;37.818;2023-04-25T02:48:55;11.07;85.45
75155;HTU21D;63735;44.730;37.818;2023-04-25T02:51:20;11.12;85.48
75155;HTU21D;63735;44.730;37.818;2023-04-25T02:53:46;11.14;85.51
75155;HTU21D;63735;44.730;37.818;2023-04-25T02:56:12;11.16;85.58
75155;HTU21D;63735;44.730;37.818;2023-04-25T02:58:38;11.18;85.64
75155;HTU21D;63735;44.730;37.818;2023-04-25T03:01:04;11.23;85.65
75155;HTU21D;63735;44.730;37.818;2023-04-25T03:03:30;11.26;85.68
75155;HTU21D;63735;44.730;37.818;2023-04-25T03:05:56;11.27;85.57
75155;HTU21D;63735;44.730;37.818;2023-04-25T03:08:27;11.31;85.45
75155;HTU21D;63735;44.730;37.818;2023-04-25T03:10:59;11.32;85.34
75155;HTU21D;63735;44.730;37.818;2023-04-25T03:13:25;11.36;85.26
75155;HTU21D;63735;44.730;37.818;2023-04-25T03:15:53;11.39;85.19
75155;HTU21D;63735;44.730;37.818;2023-04-25T03:18:19;11.39;85.06
75155;HTU21D;63735;44.730;37.818;2023-04-25T03:20:44;11.39;84.98
75155;HTU21D;63735;44.730;37.818;2023-04-25T03:23:11;11.42;84.90
75155;HTU21D;63735;44.730;37.818;2023-04-25T03:25:39;11.41;84.83
75155;HTU21D;63735;44.730;37.818;2023-04-25T03:28:06;11.41;84.81
75155;HTU21D;63735;44.730;37.818;2023-04-25T03:30:32;11.40;84.83
75155;HTU21D;63735;44.730;37.818;2023-04-25T03:32:58;11.40;84.87
75155;HTU21D;63735;44.730;37.818;2023-04-25T03:35:25;11.40;84.90
75155;HTU21D;63735;44.730;37.818;2023-04-25T03:37:50;11.41;84.94
75155;HTU21D;63735;44.730;37.818;2023-04-25T03:40:22;11.42;85.01
75155;HTU21D;63735;44.730;37.818;2023-04-25T03:43:11;11.39;85.10
75155;HTU21D;63735;44.730;37.818;2023-04-25T03:45:40;11.38;85.20
75155;HTU21D;63735;44.730;37.818;2023-04-25T03:48:06;11.37;85.23
75155;HTU21D;63735;44.730;37.818;2023-04-25T03:50:32;11.36;85.25
75155;HTU21D;63735;44.730;37.818;2023-04-25T03:52:59;11.34;85.25
75155;HTU21D;63735;44.730;37.818;2023-04-25T03:55:28;11.36;85.24
75155;HTU21D;63735;44.730;37.818;2023-04-25T03:57:53;11.37;85.15
75155;HTU21D;63735;44.730;37.818;2023-04-25T04:00:20;11.39;85.04
75155;HTU21D;63735;44.730;37.818;2023-04-25T04:02:51;11.39;84.90
75155;HTU21D;63735;44.730;37.818;2023-04-25T04:05:17;11.38;84.77
75155;HTU21D;63735;44.730;37.818;2023-04-25T04:07:51;11.38;84.61
75155;HTU21D;63735;44.730;37.818;2023-04-25T04:10:17;11.34;84.40
75155;HTU21D;63735;44.730;37.818;2023-04-25T04:12:43;11.34;84.29
75155;HTU21D;63735;44.730;37.818;2023-04-25T04:15:10;11.37;84.12
75155;HTU21D;63735;44.730;37.818;2023-04-25T04:17:37;11.36;83.78
75155;HTU21D;63735;44.730;37.818;2023-04-25T04:20:04;11.38;83.63
75155;HTU21D;63735;44.730;37.818;2023-04-25T04:22:31;11.39;83.47
75155;HTU21D;63735;44.730;37.818;2023-04-25T04:25:01;11.41;83.35
75155;HTU21D;63735;44.730;37.818;2023-04-25T04:28:03;11.43;83.20
75155;HTU21D;63735;44.730;37.818;2023-04-25T04:30:53;11.43;83.12
75155;HTU21D;63735;44.730;37.818;2023-04-25T04:33:19;11.43;83.08
75155;HTU21D;63735;44.730;37.818;2023-04-25T04:35:50;11.45;83.00
75155;HTU21D;63735;44.730;37.818;2023-04-25T04:38:18;11.46;82.97
75155;HTU21D;63735;44.730;37.818;2023-04-25T04:40:44;11.49;82.98
75155;HTU21D;63735;44.730;37.818;2023-04-25T04:43:23;11.52;82.93
75155;HTU21D;63735;44.730;37.818;2023-04-25T04:45:49;11.53;82.95
75155;HTU21D;63735;44.730;37.818;2023-04-25T04:48:33;11.56;83.00
75155;HTU21D;63735;44.730;37.818;2023-04-25T04:51:18;11.58;83.17
75155;HTU21D;63735;44.730;37.818;2023-04-25T04:53:59;11.64;83.45
75155;HTU21D;63735;44.730;37.818;2023-04-25T04:57:03;11.69;83.89
75155;HTU21D;63735;44.730;37.818;2023-04-25T04:59:42;11.74;84.02
75155;HTU21D;63735;44.730;37.818;2023-04-25T05:02:47;11.77;84.10
75155;HTU21D;63735;44.730;37.818;2023-04-25T05:05:31;11.81;84.22
75155;HTU21D;63735;44.730;37.818;2023-04-25T05:08:11;11.83;84.42
75155;HTU21D;63735;44.730;37.818;2023-04-25T05:10:43;11.87;84.51
75155;HTU21D;63735;44.730;37.818;2023-04-25T05:13:26;11.89;84.56
75155;HTU21D;63735;44.730;37.818;2023-04-25T05:16:12;11.92;84.71
75155;HTU21D;63735;44.730;37.818;2023-04-25T05:19:01;11.96;84.90
75155;HTU21D;63735;44.730;37.818;2023-04-25T05:21:35;11.99;84.89
75155;HTU21D;63735;44.730;37.818;2023-04-25T05:24:19;12.02;84.94
75155;HTU21D;63735;44.730;37.818;2023-04-25T05:27:04;12.03;84.97
75155;HTU21D;63735;44.730;37.818;2023-04-25T05:30:05;12.07;85.01
75155;HTU21D;63735;44.730;37.818;2023-04-25T05:32:46;12.12;84.88
75155;HTU21D;63735;44.730;37.818;2023-04-25T05:35:13;12.13;85.02
75155;HTU21D;63735;44.730;37.818;2023-04-25T05:37:44;12.14;85.03
75155;HTU21D;63735;44.730;37.818;2023-04-25T05:40:12;12.18;85.07
75155;HTU21D;63735;44.730;37.818;2023-04-25T05:43:00;12.21;85.00
75155;HTU21D;63735;44.730;37.818;2023-04-25T05:45:26;12.28;84.97
75155;HTU21D;63735;44.730;37.818;2023-04-25T05:48:04;12.34;84.89
75155;HTU21D;63735;44.730;37.818;2023-04-25T05:51:01;12.41;84.64
75155;HTU21D;63735;44.730;37.818;2023-04-25T05:53:53;12.56;84.44
75155;HTU21D;63735;44.730;37.818;2023-04-25T05:56:20;12.71;83.92
75155;HTU21D;63735;44.730;37.818;2023-04-25T05:58:51;12.75;83.56
75155;HTU21D;63735;44.730;37.818;2023-04-25T06:01:17;12.70;83.60
75155;HTU21D;63735;44.730;37.818;2023-04-25T06:03:43;12.67;83.73
75155;HTU21D;63735;44.730;37.818;2023-04-25T06:06:11;12.76;83.79
75155;HTU21D;63735;44.730;37.818;2023-04-25T06:08:37;12.94;83.41
75155;HTU21D;63735;44.730;37.818;2023-04-25T06:11:04;12.94;83.26
75155;HTU21D;63735;44.730;37.818;2023-04-25T06:13:30;12.91;83.30
75155;HTU21D;63735;44.730;37.818;2023-04-25T06:15:56;12.88;83.42
75155;HTU21D;63735;44.730;37.818;2023-04-25T06:18:22;12.82;83.44
75155;HTU21D;63735;44.730;37.818;2023-04-25T06:20:48;12.87;83.49
75155;HTU21D;63735;44.730;37.818;2023-04-25T06:23:16;13.03;83.34
75155;HTU21D;63735;44.730;37.818;2023-04-25T06:25:52;13.21;82.62
75155;HTU21D;63735;44.730;37.818;2023-04-25T06:28:18;13.26;82.39
75155;HTU21D;63735;44.730;37.818;2023-04-25T06:30:44;13.38;82.36
75155;HTU21D;63735;44.730;37.818;2023-04-25T06:33:15;13.39;82.06
75155;HTU21D;63735;44.730;37.818;2023-04-25T06:35:41;13.26;82.09
75155;HTU21D;63735;44.730;37.818;2023-04-25T06:38:10;13.18;82.25
75155;HTU21D;63735;44.730;37.818;2023-04-25T06:40:38;13.18;82.35
75155;HTU21D;63735;44.730;37.818;2023-04-25T06:43:05;13.11;82.19
75155;HTU21D;63735;44.730;37.818;2023-04-25T06:45:49;13.06;82.35
75155;HTU21D;63735;44.730;37.818;2023-04-25T06:48:16;13.10;82.36
75155;HTU21D;63735;44.730;37.818;2023-04-25T06:50:42;13.07;82.27
75155;HTU21D;63735;44.730;37.818;2023-04-25T06:53:08;12.95;82.16
75155;HTU21D;63735;44.730;37.818;2023-04-25T06:55:35;12.92;82.34
75155;HTU21D;63735;44.730;37.818;2023-04-25T06:58:14;12.96;82.20
75155;HTU21D;63735;44.730;37.818;2023-04-25T07:00:55;12.96;82.13
75155;HTU21D;63735;44.730;37.818;2023-04-25T07:03:23;12.95;82.04
75155;HTU21D;63735;44.730;37.818;2023-04-25T07:05:54;12.96;82.09
75155;HTU21D;63735;44.730;37.818;2023-04-25T07:08:20;13.01;81.91
75155;HTU21D;63735;44.730;37.818;2023-04-25T07:10:47;12.95;81.84
75155;HTU21D;63735;44.730;37.818;2023-04-25T07:13:13;12.92;81.91
75155;HTU21D;63735;44.730;37.818;2023-04-25T07:15:39;12.93;82.04
75155;HTU21D;63735;44.730;37.818;2023-04-25T07:18:05;12.88;82.03
75155;HTU21D;63735;44.730;37.818;2023-04-25T07:20:31;12.80;82.13
75155;HTU21D;63735;44.730;37.818;2023-04-25T07:22:59;12.74;82.23
75155;HTU21D;63735;44.730;37.818;2023-04-25T07:25:25;12.62;82.07
75155;HTU21D;63735;44.730;37.818;2023-04-25T07:27:52;12.63;82.17
75155;HTU21D;63735;44.730;37.818;2023-04-25T07:30:20;12.66;82.17
75155;HTU21D;63735;44.730;37.818;2023-04-25T07:32:46;12.67;81.95
75155;HTU21D;63735;44.730;37.818;2023-04-25T07:35:12;12.67;81.88
75155;HTU21D;63735;44.730;37.818;2023-04-25T07:37:38;12.70;81.94
75155;HTU21D;63735;44.730;37.818;2023-04-25T07:40:12;12.64;81.94
75155;HTU21D;63735;44.730;37.818;2023-04-25T07:42:43;12.67;82.01
75155;HTU21D;63735;44.730;37.818;2023-04-25T07:45:11;12.63;82.10
75155;HTU21D;63735;44.730;37.818;2023-04-25T07:47:39;12.55;82.24
75155;HTU21D;63735;44.730;37.818;2023-04-25T07:50:06;12.46;82.29
75155;HTU21D;63735;44.730;37.818;2023-04-25T07:52:32;12.43;82.36
75155;HTU21D;63735;44.730;37.818;2023-04-25T07:55:12;12.42;82.36
75155;HTU21D;63735;44.730;37.818;2023-04-25T07:57:53;12.42;82.25
75155;HTU21D;63735;44.730;37.818;2023-04-25T08:00:19;12.41;82.02
75155;HTU21D;63735;44.730;37.818;2023-04-25T08:02:52;12.43;82.01
75155;HTU21D;63735;44.730;37.818;2023-04-25T08:05:19;12.49;81.78
75155;HTU21D;63735;44.730;37.818;2023-04-25T08:07:50;12.46;81.82
75155;HTU21D;63735;44.730;37.818;2023-04-25T08:10:16;12.46;81.90
75155;HTU21D;63735;44.730;37.818;2023-04-25T08:12:43;12.41;81.76
75155;HTU21D;63735;44.730;37.818;2023-04-25T08:15:09;12.41;81.84
75155;HTU21D;63735;44.730;37.818;2023-04-25T08:17:38;12.35;81.95
75155;HTU21D;63735;44.730;37.818;2023-04-25T08:20:05;12.34;82.08
75155;HTU21D;63735;44.730;37.818;2023-04-25T08:22:34;12.32;82.10
75155;HTU21D;63735;44.730;37.818;2023-04-25T08:25:18;12.32;82.21
75155;HTU21D;63735;44.730;37.818;2023-04-25T08:27:45;12.33;82.26
75155;HTU21D;63735;44.730;37.818;2023-04-25T08:30:12;12.34;82.29
75155;HTU21D;63735;44.730;37.818;2023-04-25T08:32:39;12.37;82.14
75155;HTU21D;63735;44.730;37.818;2023-04-25T08:35:44;12.41;82.07
75155;HTU21D;63735;44.730;37.818;2023-04-25T08:38:11;12.49;82.03
75155;HTU21D;63735;44.730;37.818;2023-04-25T08:40:38;12.50;81.83
75155;HTU21D;63735;44.730;37.818;2023-04-25T08:43:13;12.55;81.63
75155;HTU21D;63735;44.730;37.818;2023-04-25T08:45:41;12.61;81.64
75155;HTU21D;63735;44.730;37.818;2023-04-25T08:48:14;12.67;81.44
75155;HTU21D;63735;44.730;37.818;2023-04-25T08:50:53;12.71;81.39
75155;HTU21D;63735;44.730;37.818;2023-04-25T08:53:32;12.66;81.23
75155;HTU21D;63735;44.730;37.818;2023-04-25T08:56:03;12.69;81.11
75155;HTU21D;63735;44.730;37.818;2023-04-25T08:58:34;12.73;80.80
75155;HTU21D;63735;44.730;37.818;2023-04-25T09:01:02;12.79;80.73
75155;HTU21D;63735;44.730;37.818;2023-04-25T09:03:35;12.92;80.62
75155;HTU21D;63735;44.730;37.818;2023-04-25T09:06:01;13.01;79.85
75155;HTU21D;63735;44.730;37.818;2023-04-25T09:08:28;13.10;79.42
75155;HTU21D;63735;44.730;37.818;2023-04-25T09:10:55;13.15;78.66
75155;HTU21D;63735;44.730;37.818;2023-04-25T09:13:28;13.25;78.13
75155;HTU21D;63735;44.730;37.818;2023-04-25T09:16:16;13.33;77.83
75155;HTU21D;63735;44.730;37.818;2023-04-25T09:19:33;13.39;77.85
75155;HTU21D;63735;44.730;37.818;2023-04-25T09:22:03;13.47;77.64
75155;HTU21D;63735;44.730;37.818;2023-04-25T09:24:50;13.51;77.53
75155;HTU21D;63735;44.730;37.818;2023-04-25T09:27:19;13.54;77.20
75155;HTU21D;63735;44.730;37.818;2023-04-25T09:29:57;13.71;77.11
75155;HTU21D;63735;44.730;37.818;2023-04-25T09:32:25;13.75;76.66
75155;HTU21D;63735;44.730;37.818;2023-04-25T09:34:56;14.19;76.35
75155;HTU21D;63735;44.730;37.818;2023-04-25T09:37:27;14.43;75.92
75155;HTU21D;63735;44.730;37.818;2023-04-25T09:40:32;14.54;75.34
75155;HTU21D;63735;44.730;37.818;2023-04-25T09:43:19;14.58;75.51
75155;HTU21D;63735;44.730;37.818;2023-04-25T09:45:48;14.88;75.25
75155;HTU21D;63735;44.730;37.818;2023-04-25T09:48:25;15.10;74.92
75155;HTU21D;63735;44.730;37.818;2023-04-25T09:51:10;15.14;74.47
75155;HTU21D;63735;44.730;37.818;2023-04-25T09:53:38;15.04;73.70
75155;HTU21D;63735;44.730;37.818;2023-04-25T09:56:29;14.91;73.61
75155;HTU21D;63735;44.730;37.818;2023-04-25T09:58:58;14.80;73.12
75155;HTU21D;63735;44.730;37.818;2023-04-25T10:01:25;14.64;72.91
75155;HTU21D;63735;44.730;37.818;2023-04-25T10:04:24;14.25;73.01
75155;HTU21D;63735;44.730;37.818;2023-04-25T10:06:57;14.37;73.10
75155;HTU21D;63735;44.730;37.818;2023-04-25T10:09:26;14.33;73.12
75155;HTU21D;63735;44.730;37.818;2023-04-25T10:11:54;14.43;72.98
75155;HTU21D;63735;44.730;37.818;2023-04-25T10:14:22;14.45;72.13
75155;HTU21D;63735;44.730;37.818;2023-04-25T10:16:49;14.47;72.00
75155;HTU21D;63735;44.730;37.818;2023-04-25T10:19:20;14.25;72.39
75155;HTU21D;63735;44.730;37.818;2023-04-25T10:21:48;13.99;72.73
75155;HTU21D;63735;44.730;37.818;2023-04-25T10:24:16;13.76;73.56
75155;HTU21D;63735;44.730;37.818;2023-04-25T10:26:42;13.91;74.14
75155;HTU21D;63735;44.730;37.818;2023-04-25T10:29:09;14.12;73.98
75155;HTU21D;63735;44.730;37.818;2023-04-25T10:31:38;14.22;73.67
75155;HTU21D;63735;44.730;37.818;2023-04-25T10:34:10;14.23;73.65
75155;HTU21D;63735;44.730;37.818;2023-04-25T10:36:36;14.34;73.93
75155;HTU21D;63735;44.730;37.818;2023-04-25T10:39:06;14.65;73.51
75155;HTU21D;63735;44.730;37.818;2023-04-25T10:41:48;14.59;72.76
75155;HTU21D;63735;44.730;37.818;2023-04-25T10:44:17;14.33;73.10
75155;HTU21D;63735;44.730;37.818;2023-04-25T10:46:44;14.18;73.81
75155;HTU21D;63735;44.730;37.818;2023-04-25T10:49:11;14.13;73.99
75155;HTU21D;63735;44.730;37.818;2023-04-25T10:54:55;15.07;73.22
75155;HTU21D;63735;44.730;37.818;2023-04-25T10:57:28;14.75;72.09
75155;HTU21D;63735;44.730;37.818;2023-04-25T11:00:08;14.26;72.83
75155;HTU21D;63735;44.730;37.818;2023-04-25T11:02:55;14.23;73.73
75155;HTU21D;63735;44.730;37.818;2023-04-25T11:05:33;14.96;73.45
75155;HTU21D;63735;44.730;37.818;2023-04-25T11:08:00;15.36;71.62
75155;HTU21D;63735;44.730;37.818;2023-04-25T11:10:28;15.54;70.97
75155;HTU21D;63735;44.730;37.818;2023-04-25T11:12:55;15.54;71.13
75155;HTU21D;63735;44.730;37.818;2023-04-25T11:15:21;15.12;71.06
75155;HTU21D;63735;44.730;37.818;2023-04-25T11:17:47;14.64;71.54
75155;HTU21D;63735;44.730;37.818;2023-04-25T11:20:13;14.75;72.33
75155;HTU21D;63735;44.730;37.818;2023-04-25T11:22:41;15.00;72.25
75155;HTU21D;63735;44.730;37.818;2023-04-25T11:25:09;14.96;72.23
75155;HTU21D;63735;44.730;37.818;2023-04-25T11:27:56;15.11;72.89
75155;HTU21D;63735;44.730;37.818;2023-04-25T11:30:24;15.69;71.75
75155;HTU21D;63735;44.730;37.818;2023-04-25T11:32:50;15.53;71.07
75155;HTU21D;63735;44.730;37.818;2023-04-25T11:35:19;15.55;71.90
75155;HTU21D;63735;44.730;37.818;2023-04-25T11:37:45;15.42;71.71
75155;HTU21D;63735;44.730;37.818;2023-04-25T11:40:11;15.40;71.51
75155;HTU21D;63735;44.730;37.818;2023-04-25T11:42:38;15.38;71.82
75155;HTU21D;63735;44.730;37.818;2023-04-25T11:45:05;15.59;71.27
75155;HTU21D;63735;44.730;37.818;2023-04-25T11:47:32;15.28;70.71
75155;HTU21D;63735;44.730;37.818;2023-04-25T11:50:02;14.95;71.00
75155;HTU21D;63735;44.730;37.818;2023-04-25T11:52:36;14.81;72.00
75155;HTU21D;63735;44.730;37.818;2023-04-25T11:55:12;15.23;72.41
75155;HTU21D;63735;44.730;37.818;2023-04-25T11:57:39;15.99;71.45
75155;HTU21D;63735;44.730;37.818;2023-04-25T12:02:41;16.56;69.00
75155;HTU21D;63735;44.730;37.818;2023-04-25T12:05:08;16.13;69.79
75155;HTU21D;63735;44.730;37.818;2023-04-25T12:07:35;15.83;69.58
75155;HTU21D;63735;44.730;37.818;2023-04-25T12:10:10;15.76;70.40
75155;HTU21D;63735;44.730;37.818;2023-04-25T12:12:37;15.74;70.15
75155;HTU21D;63735;44.730;37.818;2023-04-25T12:15:29;16.00;69.61
75155;HTU21D;63735;44.730;37.818;2023-04-25T12:17:55;16.03;70.48
75155;HTU21D;63735;44.730;37.818;2023-04-25T12:20:24;17.16;69.33
75155;HTU21D;63735;44.730;37.818;2023-04-25T12:22:51;17.51;67.27
75155;HTU21D;63735;44.730;37.818;2023-04-25T12:28:18;17.47;66.36
75155;HTU21D;63735;44.730;37.818;2023-04-25T12:31:06;16.63;67.62
75155;HTU21D;63735;44.730;37.818;2023-04-25T12:33:33;16.18;68.26
75155;HTU21D;63735;44.730;37.818;2023-04-25T12:36:00;15.76;68.39
75155;HTU21D;63735;44.730;37.818;2023-04-25T12:38:36;15.37;68.68
75155;HTU21D;63735;44.730;37.818;2023-04-25T12:41:02;15.19;69.34
75155;HTU21D;63735;44.730;37.818;2023-04-25T12:43:28;15.09;69.71
75155;HTU21D;63735;44.730;37.818;2023-04-25T12:45:55;14.94;69.36
75155;HTU21D;63735;44.730;37.818;2023-04-25T12:48:22;14.99;69.69
75155;HTU21D;63735;44.730;37.818;2023-04-25T12:50:49;15.22;69.97
75155;HTU21D;63735;44.730;37.818;2023-04-25T12:53:21;15.09;69.42
75155;HTU21D;63735;44.730;37.818;2023-04-25T12:55:47;14.78;70.13
75155;HTU21D;63735;44.730;37.818;2023-04-25T12:58:18;14.58;70.88
75155;HTU21D;63735;44.730;37.818;2023-04-25T13:00:45;14.55;71.16
75155;HTU21D;63735;44.730;37.818;2023-04-25T13:03:11;14.55;71.39
75155;HTU21D;63735;44.730;37.818;2023-04-25T13:05:38;14.53;71.47
75155;HTU21D;63735;44.730;37.818;2023-04-25T13:08:04;14.50;71.84
75155;HTU21D;63735;44.730;37.818;2023-04-25T13:10:30;14.48;71.83
75155;HTU21D;63735;44.730;37.818;2023-04-25T13:12:56;14.28;72.29
75155;HTU21D;63735;44.730;37.818;2023-04-25T13:15:22;14.11;72.66
75155;HTU21D;63735;44.730;37.818;2023-04-25T13:17:48;13.99;73.35
75155;HTU21D;63735;44.730;37.818;2023-04-25T13:20:14;13.98;73.64
75155;HTU21D;63735;44.730;37.818;2023-04-25T13:22:42;13.94;73.70
75155;HTU21D;63735;44.730;37.818;2023-04-25T13:25:08;13.97;73.80
75155;HTU21D;63735;44.730;37.818;2023-04-25T13:27:35;13.98;73.81
75155;HTU21D;63735;44.730;37.818;2023-04-25T13:30:03;14.01;73.68
75155;HTU21D;63735;44.730;37.818;2023-04-25T13:32:36;13.97;73.55
75155;HTU21D;63735;44.730;37.818;2023-04-25T13:35:04;13.94;73.68
75155;HTU21D;63735;44.730;37.818;2023-04-25T13:37:31;14.03;73.52
75155;HTU21D;63735;44.730;37.818;2023-04-25T13:40:06;14.04;73.44
75155;HTU21D;63735;44.730;37.818;2023-04-25T13:42:37;14.03;73.53
75155;HTU21D;63735;44.730;37.818;2023-04-25T13:45:14;14.05;73.59
75155;HTU21D;63735;44.730;37.818;2023-04-25T13:47:40;14.08;73.71
75155;HTU21D;63735;44.730;37.818;2023-04-25T13:50:08;14.17;73.52
75155;HTU21D;63735;44.730;37.818;2023-04-25T13:52:35;14.15;73.65
75155;HTU21D;63735;44.730;37.818;2023-04-25T13:55:01;14.10;73.51
75155;HTU21D;63735;44.730;37.818;2023-04-25T13:57:30;14.01;73.68
75155;HTU21D;63735;44.730;37.818;2023-04-25T13:59:56;14.01;73.80
75155;HTU21D;63735;44.730;37.818;2023-04-25T14:02:22;14.13;73.66
75155;HTU21D;63735;44.730;37.818;2023-04-25T14:04:48;14.15;73.72
75155;HTU21D;63735;44.730;37.818;2023-04-25T14:07:14;14.34;73.71
75155;HTU21D;63735;44.730;37.818;2023-04-25T14:09:43;14.38;73.19
75155;HTU21D;63735;44.730;37.818;2023-04-25T14:12:09;14.30;73.25
75155;HTU21D;63735;44.730;37.818;2023-04-25T14:14:36;14.37;72.99
75155;HTU21D;63735;44.730;37.818;2023-04-25T14:17:03;14.37;73.21
75155;HTU21D;63735;44.730;37.818;2023-04-25T14:19:29;14.33;73.34
75155;HTU21D;63735;44.730;37.818;2023-04-25T14:21:55;14.36;73.44
75155;HTU21D;63735;44.730;37.818;2023-04-25T14:24:21;14.36;73.30
75155;HTU21D;63735;44.730;37.818;2023-04-25T14:26:47;14.23;73.60
75155;HTU21D;63735;44.730;37.818;2023-04-25T14:29:14;14.12;73.89
75155;HTU21D;63735;44.730;37.818;2023-04-25T14:31:40;14.17;73.86
75155;HTU21D;63735;44.730;37.818;2023-04-25T14:34:06;14.17;73.68
75155;HTU21D;63735;44.730;37.818;2023-04-25T14:36:33;14.18;73.65
75155;HTU21D;63735;44.730;37.818;2023-04-25T14:38:59;14.13;73.51
75155;HTU21D;63735;44.730;37.818;2023-04-25T14:41:25;13.97;73.63
75155;HTU21D;63735;44.730;37.818;2023-04-25T14:43:52;13.82;73.96
75155;HTU21D;63735;44.730;37.818;2023-04-25T14:46:19;13.76;74.18
75155;HTU21D;63735;44.730;37.818;2023-04-25T14:48:46;13.74;74.35
75155;HTU21D;63735;44.730;37.818;2023-04-25T14:51:12;13.76;74.38
75155;HTU21D;63735;44.730;37.818;2023-04-25T14:53:39;13.66;74.49
75155;HTU21D;63735;44.730;37.818;2023-04-25T14:56:05;13.53;74.59
75155;HTU21D;63735;44.730;37.818;2023-04-25T14:58:32;13.46;74.70
75155;HTU21D;63735;44.730;37.818;2023-04-25T15:00:59;13.47;74.64
75155;HTU21D;63735;44.730;37.818;2023-04-25T15:03:25;13.41;74.55
75155;HTU21D;63735;44.730;37.818;2023-04-25T15:05:55;13.36;74.78
75155;HTU21D;63735;44.730;37.818;2023-04-25T15:08:21;13.38;74.84
75155;HTU21D;63735;44.730;37.818;2023-04-25T15:10:47;13.30;75.07
75155;HTU21D;63735;44.730;37.818;2023-04-25T15:13:13;13.24;75.13
75155;HTU21D;63735;44.730;37.818;2023-04-25T15:15:40;13.22;75.21
75155;HTU21D;63735;44.730;37.818;2023-04-25T15:18:06;13.18;75.28
75155;HTU21D;63735;44.730;37.818;2023-04-25T15:20:32;13.17;75.50
75155;HTU21D;63735;44.730;37.818;2023-04-25T15:22:58;13.07;75.54
75155;HTU21D;63735;44.730;37.818;2023-04-25T15:25:24;13.01;75.78
75155;HTU21D;63735;44.730;37.818;2023-04-25T15:27:50;12.95;75.97
75155;HTU21D;63735;44.730;37.818;2023-04-25T15:30:17;12.89;76.12